createdAt,value
2023-05-19T00:01:29.445Z,12.63
2023-05-19T00:03:59.227Z,12.79
2023-05-19T00:06:33.669Z,12.66
2023-05-19T00:09:05.594Z,12.73
2023-05-19T00:11:32.598Z,12.66
2023-05-19T00:14:00.930Z,12.55
2023-05-19T00:16:29.566Z,12.66
2023-05-19T00:18:58.441Z,12.59
2023-05-19T00:21:25.124Z,12.64
2023-05-19T00:23:51.879Z,12.65
2023-05-19T00:26:18.762Z,12.64
2023-05-19T00:28:45.479Z,12.74
2023-05-19T00:31:12.142Z,12.85
2023-05-19T00:33:38.896Z,12.85
2023-05-19T00:36:06.063Z,12.80
2023-05-19T00:38:34.778Z,12.73
2023-05-19T00:41:02.330Z,12.70
2023-05-19T00:43:34.503Z,12.76
2023-05-19T00:46:01.355Z,12.71
2023-05-19T00:48:28.068Z,12.68
2023-05-19T00:51:02.352Z,12.67
2023-05-19T00:53:30.089Z,12.77
2023-05-19T00:55:57.512Z,12.70
2023-05-19T00:58:29.344Z,12.68
2023-05-19T01:01:04.746Z,12.70
2023-05-19T01:03:35.379Z,12.72
2023-05-19T01:06:06.347Z,12.58
2023-05-19T01:08:34.268Z,12.73
2023-05-19T01:11:01.047Z,12.85
2023-05-19T01:13:29.133Z,12.89
2023-05-19T01:16:19.392Z,12.69
2023-05-19T01:19:02.054Z,12.76
2023-05-19T01:21:37.678Z,12.69
2023-05-19T01:24:23.503Z,12.69
2023-05-19T01:27:18.629Z,12.73
2023-05-19T01:30:19.741Z,12.70
2023-05-19T01:32:48.700Z,12.55
2023-05-19T01:35:16.893Z,12.68
2023-05-19T01:37:45.554Z,12.62
2023-05-19T01:40:12.976Z,12.61
2023-05-19T01:42:41.013Z,12.55
2023-05-19T01:45:11.381Z,12.59
2023-05-19T01:47:41.891Z,12.66
2023-05-19T01:50:09.146Z,12.66
2023-05-19T01:52:35.871Z,12.62
2023-05-19T01:55:02.563Z,12.50
2023-05-19T01:57:56.976Z,12.48
2023-05-19T02:00:23.647Z,12.50
2023-05-19T02:03:15.293Z,12.54
2023-05-19T02:05:54.763Z,12.49
2023-05-19T02:11:12.961Z,12.44
2023-05-19T02:13:44.157Z,12.42
2023-05-19T02:16:13.516Z,12.46
2023-05-19T02:18:45.677Z,12.40
2023-05-19T02:21:13.785Z,12.38
2023-05-19T02:23:42.152Z,12.36
2023-05-19T02:26:09.049Z,12.36
2023-05-19T02:31:10.253Z,12.26
2023-05-19T02:33:37.725Z,12.30
2023-05-19T02:36:04.977Z,12.37
2023-05-19T02:38:31.912Z,12.33
2023-05-19T02:40:58.850Z,12.22
2023-05-19T02:43:25.709Z,12.22
2023-05-19T02:45:52.616Z,12.23
2023-05-19T02:48:19.421Z,12.18
2023-05-19T02:50:46.171Z,12.07
2023-05-19T02:53:12.869Z,12.02
2023-05-19T02:55:39.596Z,12.12
2023-05-19T02:58:06.257Z,12.05
2023-05-19T03:00:33.135Z,12.12
2023-05-19T03:03:03.081Z,12.02
2023-05-19T03:08:03.230Z,11.92
2023-05-19T03:10:30.905Z,11.85
2023-05-19T03:12:57.727Z,11.80
2023-05-19T03:15:24.378Z,11.73
2023-05-19T03:17:51.157Z,11.70
2023-05-19T03:20:18.588Z,11.78
2023-05-19T03:22:45.298Z,11.73
2023-05-19T03:25:11.992Z,11.74
2023-05-19T03:27:38.735Z,11.65
2023-05-19T03:30:06.824Z,11.68
2023-05-19T03:32:34.191Z,11.72
2023-05-19T03:35:01.094Z,11.72
2023-05-19T03:37:27.818Z,11.58
2023-05-19T03:39:54.492Z,11.66
2023-05-19T03:42:21.296Z,11.46
2023-05-19T03:44:48.624Z,11.30
2023-05-19T03:47:15.373Z,11.48
2023-05-19T03:49:42.129Z,11.57
2023-05-19T03:52:09.951Z,11.43
2023-05-19T03:54:36.815Z,11.36
2023-05-19T03:57:03.578Z,11.20
2023-05-19T03:59:30.228Z,11.19
2023-05-19T04:01:58.132Z,11.31
2023-05-19T04:04:24.993Z,11.25
2023-05-19T04:06:51.747Z,11.12
2023-05-19T04:09:19.818Z,11.17
2023-05-19T04:11:46.669Z,10.84
2023-05-19T04:14:13.370Z,10.77
2023-05-19T04:16:40.395Z,10.74
2023-05-19T04:19:07.246Z,10.78
2023-05-19T04:21:34.039Z,10.94
2023-05-19T04:24:00.739Z,10.96
2023-05-19T04:26:31.205Z,10.82
2023-05-19T04:28:57.899Z,10.99
2023-05-19T04:31:24.799Z,11.14
2023-05-19T04:36:26.425Z,10.93
2023-05-19T04:38:55.069Z,10.97
2023-05-19T04:41:22.131Z,10.98
2023-05-19T04:43:50.278Z,11.12
2023-05-19T04:46:17.021Z,10.92
2023-05-19T04:48:44.234Z,10.97
2023-05-19T04:51:14.415Z,10.97
2023-05-19T04:53:42.354Z,10.91
2023-05-19T04:56:10.079Z,11.11
2023-05-19T04:58:40.595Z,10.98
2023-05-19T05:01:09.805Z,11.08
2023-05-19T05:03:36.893Z,11.22
2023-05-19T05:06:04.793Z,11.14
2023-05-19T05:08:31.595Z,11.35
2023-05-19T05:10:58.619Z,11.45
2023-05-19T05:13:25.861Z,11.48
2023-05-19T05:15:52.917Z,11.64
2023-05-19T05:18:20.018Z,11.68
2023-05-19T05:20:47.250Z,11.97
2023-05-19T05:23:17.073Z,12.10
2023-05-19T05:25:44.948Z,12.12
2023-05-19T05:28:11.912Z,12.31
2023-05-19T05:30:38.733Z,12.32
2023-05-19T05:33:06.592Z,12.37
2023-05-19T05:35:33.847Z,12.31
2023-05-19T05:38:01.901Z,12.48
2023-05-19T05:40:28.812Z,12.53
2023-05-19T05:42:55.943Z,12.75
2023-05-19T05:45:23.550Z,12.86
2023-05-19T05:47:51.595Z,12.99
2023-05-19T05:50:18.987Z,13.08
2023-05-19T05:52:47.579Z,13.26
2023-05-19T05:55:15.707Z,13.36
2023-05-19T05:57:42.429Z,13.46
2023-05-19T06:00:15.624Z,13.50
2023-05-19T06:02:47.540Z,13.63
2023-05-19T06:05:14.385Z,13.70
2023-05-19T06:07:41.494Z,13.94
2023-05-19T06:10:09.332Z,14.17
2023-05-19T06:12:40.158Z,14.30
2023-05-19T06:15:08.176Z,14.38
2023-05-19T06:17:36.298Z,14.53
2023-05-19T06:20:05.776Z,14.55
2023-05-19T06:22:32.792Z,14.46
2023-05-19T06:24:59.582Z,14.61
2023-05-19T06:27:26.382Z,14.57
2023-05-19T06:29:53.300Z,14.85
2023-05-19T06:32:20.643Z,14.96
2023-05-19T06:34:54.140Z,14.64
2023-05-19T06:37:23.159Z,14.42
2023-05-19T06:39:53.952Z,14.65
2023-05-19T06:42:22.820Z,14.80
2023-05-19T06:44:51.441Z,14.75
2023-05-19T06:47:19.127Z,14.81
2023-05-19T06:49:50.919Z,15.03
2023-05-19T06:52:18.408Z,15.17
2023-05-19T06:54:45.195Z,15.26
2023-05-19T06:57:11.905Z,15.15
2023-05-19T06:59:41.071Z,14.77
2023-05-19T07:02:08.189Z,14.64
2023-05-19T07:04:35.441Z,14.72
2023-05-19T07:07:02.387Z,14.72
2023-05-19T07:09:29.245Z,14.77
2023-05-19T07:11:56.706Z,14.89
2023-05-19T07:14:23.526Z,14.71
2023-05-19T07:16:50.330Z,14.87
2023-05-19T07:19:19.519Z,14.76
2023-05-19T07:21:48.075Z,14.68
2023-05-19T07:24:14.825Z,14.69
2023-05-19T07:26:42.823Z,14.78
2023-05-19T07:29:09.586Z,14.79
2023-05-19T07:31:36.347Z,14.64
2023-05-19T07:34:03.213Z,14.73
2023-05-19T07:36:30.124Z,14.58
2023-05-19T07:38:57.047Z,14.45
2023-05-19T07:41:23.905Z,14.61
2023-05-19T07:43:50.652Z,14.60
2023-05-19T07:46:17.480Z,14.62
2023-05-19T07:48:44.291Z,14.68
2023-05-19T07:51:12.935Z,14.78
2023-05-19T07:53:39.661Z,14.63
2023-05-19T07:56:06.774Z,14.61
2023-05-19T08:01:11.949Z,14.55
2023-05-19T08:03:38.791Z,14.56
2023-05-19T08:06:05.808Z,14.55
2023-05-19T08:08:33.601Z,14.57
2023-05-19T08:11:04.631Z,14.56
2023-05-19T08:13:31.586Z,14.59
2023-05-19T08:16:00.261Z,14.59
2023-05-19T08:18:27.143Z,14.76
2023-05-19T08:20:53.974Z,14.80
2023-05-19T08:26:01.920Z,14.81
2023-05-19T08:28:28.737Z,14.80
2023-05-19T08:30:55.475Z,14.77
2023-05-19T08:33:23.120Z,14.68
2023-05-19T08:35:49.806Z,14.55
2023-05-19T08:38:16.731Z,14.23
2023-05-19T08:40:47.039Z,14.71
2023-05-19T08:43:13.803Z,14.99
2023-05-19T08:45:44.323Z,14.97
2023-05-19T08:48:12.473Z,14.97
2023-05-19T08:50:42.689Z,15.01
2023-05-19T08:53:34.569Z,15.11
2023-05-19T08:56:10.623Z,15.02
2023-05-19T08:58:40.708Z,14.93
2023-05-19T09:01:13.846Z,14.81
2023-05-19T09:03:42.132Z,14.85
2023-05-19T09:06:12.777Z,14.78
2023-05-19T09:08:40.711Z,14.96
2023-05-19T09:11:07.587Z,15.15
2023-05-19T09:13:34.294Z,14.77
2023-05-19T09:16:02.264Z,14.75
2023-05-19T09:18:29.475Z,14.84
2023-05-19T09:21:02.622Z,14.90
2023-05-19T09:23:31.889Z,14.80
2023-05-19T09:26:07.753Z,14.94
2023-05-19T09:28:36.648Z,14.83
2023-05-19T09:31:03.982Z,14.99
2023-05-19T09:33:36.416Z,15.08
2023-05-19T09:36:06.303Z,15.11
2023-05-19T09:38:33.269Z,15.29
2023-05-19T09:41:01.031Z,15.09
2023-05-19T09:43:29.369Z,15.27
2023-05-19T09:46:10.095Z,15.23
2023-05-19T09:48:38.644Z,15.37
2023-05-19T09:51:08.319Z,15.30
2023-05-19T09:53:35.074Z,15.54
2023-05-19T09:56:03.795Z,15.52
2023-05-19T09:58:37.223Z,15.41
2023-05-19T10:01:04.551Z,15.45
2023-05-19T10:03:33.178Z,15.30
2023-05-19T10:06:01.605Z,15.19
2023-05-19T10:08:30.903Z,15.32
2023-05-19T10:10:58.107Z,15.03
2023-05-19T10:13:25.761Z,14.88
2023-05-19T10:18:23.338Z,15.29
2023-05-19T10:20:50.501Z,15.23
2023-05-19T10:23:17.397Z,15.20
2023-05-19T10:25:45.037Z,15.43
2023-05-19T10:28:17.659Z,15.21
2023-05-19T10:30:51.096Z,15.52
2023-05-19T10:36:16.064Z,15.59
2023-05-19T10:38:56.665Z,15.57
2023-05-19T10:41:47.002Z,15.61
2023-05-19T10:44:21.487Z,15.68
2023-05-19T10:46:48.263Z,15.74
2023-05-19T10:49:22.422Z,15.16
2023-05-19T10:51:50.006Z,15.45
2023-05-19T10:54:18.640Z,15.42
2023-05-19T10:56:48.320Z,15.41
2023-05-19T10:59:32.519Z,15.45
2023-05-19T11:02:04.138Z,15.47
2023-05-19T11:05:08.404Z,15.46
2023-05-19T11:07:35.311Z,15.56
2023-05-19T11:10:08.004Z,15.51
2023-05-19T11:12:43.149Z,15.63
2023-05-19T11:15:14.928Z,15.64
2023-05-19T11:17:42.772Z,15.71
2023-05-19T11:20:20.126Z,15.72
2023-05-19T11:23:02.136Z,15.59
2023-05-19T11:25:41.588Z,15.78
2023-05-19T11:28:10.535Z,15.66
2023-05-19T11:30:37.926Z,15.63
2023-05-19T11:33:06.391Z,15.33
2023-05-19T11:35:36.012Z,15.29
2023-05-19T11:38:03.677Z,15.31
2023-05-19T11:40:31.004Z,15.29
2023-05-19T11:42:58.260Z,15.37
2023-05-19T11:50:47.373Z,15.37
2023-05-19T11:53:15.263Z,15.25
2023-05-19T11:55:51.651Z,15.57
2023-05-19T11:58:18.670Z,15.57
2023-05-19T12:00:48.315Z,15.65
2023-05-19T12:05:49.197Z,15.91
2023-05-19T12:08:19.166Z,15.59
2023-05-19T12:10:50.763Z,15.84
2023-05-19T12:13:17.531Z,15.94
2023-05-19T12:15:44.549Z,15.96
2023-05-19T12:18:11.470Z,15.80
2023-05-19T12:20:38.374Z,15.90
2023-05-19T12:23:05.332Z,15.89
2023-05-19T12:25:32.817Z,15.93
2023-05-19T12:28:03.345Z,16.01
2023-05-19T12:30:32.409Z,15.87
2023-05-19T12:32:59.955Z,15.73
2023-05-19T12:35:28.296Z,15.64
2023-05-19T12:37:55.270Z,15.69
2023-05-19T12:40:22.291Z,15.66
2023-05-19T12:42:52.248Z,15.70
2023-05-19T12:45:22.544Z,15.83
2023-05-19T12:47:49.702Z,15.88
2023-05-19T12:50:16.513Z,15.88
2023-05-19T12:52:45.826Z,15.96
2023-05-19T12:55:14.402Z,16.17
2023-05-19T12:57:43.052Z,16.30
2023-05-19T13:00:21.124Z,16.46
2023-05-19T13:03:07.979Z,16.35
2023-05-19T13:05:39.162Z,16.12
2023-05-19T13:08:08.579Z,16.18
2023-05-19T13:10:37.166Z,16.08
2023-05-19T13:13:04.863Z,15.94
2023-05-19T13:15:37.964Z,15.73
2023-05-19T13:18:06.741Z,15.80
2023-05-19T13:20:34.690Z,15.70
2023-05-19T13:23:01.885Z,15.82
2023-05-19T13:25:28.585Z,15.78
2023-05-19T13:27:55.600Z,15.91
2023-05-19T13:30:23.350Z,15.76
2023-05-19T13:32:50.941Z,15.70
2023-05-19T13:35:17.662Z,15.72
2023-05-19T13:37:44.789Z,15.71
2023-05-19T13:40:12.380Z,15.76
2023-05-19T13:42:39.510Z,15.74
2023-05-19T13:45:06.677Z,15.80
2023-05-19T13:47:33.412Z,15.99
2023-05-19T13:50:00.124Z,15.92
2023-05-19T13:52:28.368Z,16.01
2023-05-19T13:54:57.125Z,15.86
2023-05-19T13:57:24.411Z,15.96
2023-05-19T14:00:01.682Z,16.10
2023-05-19T14:02:30.496Z,16.09
2023-05-19T14:07:36.123Z,16.24
2023-05-19T14:10:05.751Z,16.28
2023-05-19T14:12:41.416Z,16.25
2023-05-19T14:15:14.592Z,16.14
2023-05-19T14:17:41.646Z,16.19
2023-05-19T14:20:09.844Z,16.12
2023-05-19T14:22:36.531Z,16.07
2023-05-19T14:27:41.189Z,16.12
2023-05-19T14:30:08.498Z,16.06
2023-05-19T14:32:35.371Z,16.17
2023-05-19T14:35:02.504Z,16.20
2023-05-19T14:37:29.323Z,16.20
2023-05-19T14:39:57.243Z,16.19
2023-05-19T14:42:24.355Z,16.24
2023-05-19T14:44:51.081Z,16.03
2023-05-19T14:47:17.810Z,16.21
2023-05-19T14:49:44.505Z,16.05
2023-05-19T14:52:11.191Z,16.01
2023-05-19T14:54:37.935Z,15.98
2023-05-19T14:57:04.808Z,16.02
2023-05-19T14:59:31.618Z,15.97
2023-05-19T15:01:58.278Z,16.09
2023-05-19T15:04:25.091Z,16.09
2023-05-19T15:07:05.790Z,16.16
2023-05-19T15:09:36.409Z,16.18
2023-05-19T15:12:03.205Z,16.21
2023-05-19T15:14:30.981Z,16.24
2023-05-19T15:16:58.712Z,16.24
2023-05-19T15:19:26.329Z,16.12
2023-05-19T15:21:53.174Z,16.37
2023-05-19T15:24:19.892Z,16.32
2023-05-19T15:26:47.384Z,16.38
2023-05-19T15:29:14.121Z,16.31
2023-05-19T15:31:41.735Z,16.37
2023-05-19T15:34:08.697Z,16.42
2023-05-19T15:36:35.775Z,16.24
2023-05-19T15:39:04.012Z,16.34
2023-05-19T15:41:30.829Z,16.44
2023-05-19T15:44:00.467Z,16.47
2023-05-19T15:46:27.545Z,16.50
2023-05-19T15:48:54.318Z,16.39
2023-05-19T15:51:21.285Z,16.51
2023-05-19T15:53:48.376Z,16.44
2023-05-19T15:56:15.199Z,16.35
2023-05-19T15:58:41.924Z,16.35
2023-05-19T16:01:09.021Z,16.27
2023-05-19T16:03:35.876Z,16.38
2023-05-19T16:06:02.761Z,16.44
2023-05-19T16:08:29.746Z,16.43
2023-05-19T16:10:56.537Z,16.49
2023-05-19T16:13:23.280Z,16.59
2023-05-19T16:15:50.056Z,16.41
2023-05-19T16:18:16.872Z,16.54
2023-05-19T16:20:44.378Z,16.64
2023-05-19T16:23:11.107Z,16.58
2023-05-19T16:25:37.731Z,16.56
2023-05-19T16:28:04.658Z,16.52
2023-05-19T16:30:31.381Z,16.61
2023-05-19T16:32:58.262Z,16.61
2023-05-19T16:35:25.357Z,16.54
2023-05-19T16:37:52.036Z,16.57
2023-05-19T16:40:18.677Z,16.41
2023-05-19T16:42:45.698Z,16.32
2023-05-19T16:45:12.493Z,16.29
2023-05-19T16:47:39.232Z,16.45
2023-05-19T16:50:06.740Z,16.45
2023-05-19T16:52:33.569Z,16.33
2023-05-19T16:55:00.181Z,16.26
2023-05-19T16:57:26.983Z,16.30
2023-05-19T16:59:53.724Z,16.16
2023-05-19T17:02:20.658Z,16.24
2023-05-19T17:04:47.426Z,16.17
2023-05-19T17:07:17.506Z,16.11
2023-05-19T17:09:44.885Z,16.21
2023-05-19T17:12:11.621Z,16.16
2023-05-19T17:14:38.317Z,16.09
2023-05-19T17:17:05.225Z,15.95
2023-05-19T17:19:32.181Z,15.81
2023-05-19T17:21:59.048Z,15.77
2023-05-19T17:27:00.168Z,15.75
2023-05-19T17:29:29.606Z,15.73
2023-05-19T17:31:56.457Z,15.61
2023-05-19T17:34:23.303Z,15.61
2023-05-19T17:36:49.980Z,15.55
2023-05-19T17:39:16.891Z,15.57
2023-05-19T17:41:43.661Z,15.58
2023-05-19T17:44:11.352Z,15.51
2023-05-19T17:46:39.437Z,15.51
2023-05-19T17:49:06.684Z,15.46
2023-05-19T17:51:33.837Z,15.39
2023-05-19T17:54:00.778Z,15.51
2023-05-19T17:56:30.446Z,15.53
2023-05-19T17:58:57.325Z,15.49
2023-05-19T18:01:25.993Z,15.44
2023-05-19T18:03:53.215Z,15.37
2023-05-19T18:06:20.700Z,15.37
2023-05-19T18:08:50.719Z,15.39
2023-05-19T18:11:18.838Z,15.31
2023-05-19T18:13:45.853Z,15.27
2023-05-19T18:16:12.911Z,15.19
2023-05-19T18:18:43.595Z,15.22
2023-05-19T18:21:14.544Z,15.12
2023-05-19T18:23:41.653Z,15.11
2023-05-19T18:26:08.364Z,15.09
2023-05-19T18:28:35.643Z,15.01
2023-05-19T18:33:37.942Z,14.90
2023-05-19T18:36:04.842Z,14.87
2023-05-19T18:38:31.581Z,14.86
2023-05-19T18:40:58.488Z,14.84
2023-05-19T18:43:25.350Z,14.82
2023-05-19T18:45:52.189Z,14.73
2023-05-19T18:48:18.982Z,14.65
2023-05-19T18:50:45.831Z,14.57
2023-05-19T18:53:12.616Z,14.66
2023-05-19T18:55:39.370Z,14.79
2023-05-19T18:58:06.390Z,14.63
2023-05-19T19:00:35.139Z,14.53
2023-05-19T19:03:02.653Z,14.42
2023-05-19T19:05:29.356Z,14.17
2023-05-19T19:07:56.398Z,14.34
2023-05-19T19:10:23.250Z,14.48
2023-05-19T19:12:50.010Z,14.34
2023-05-19T19:15:16.701Z,14.44
2023-05-19T19:17:43.926Z,14.34
2023-05-19T19:20:11.309Z,14.40
2023-05-19T19:22:38.114Z,14.39
2023-05-19T19:25:05.123Z,14.40
2023-05-19T19:27:31.842Z,14.35
2023-05-19T19:29:58.927Z,14.34
2023-05-19T19:32:25.918Z,14.38
2023-05-19T19:34:53.502Z,14.28
2023-05-19T19:37:20.315Z,14.41
2023-05-19T19:39:47.088Z,14.29
2023-05-19T19:42:13.802Z,14.38
2023-05-19T19:47:12.203Z,14.45
2023-05-19T19:49:38.882Z,14.27
2023-05-19T19:54:37.198Z,14.31
2023-05-19T19:57:04.390Z,14.15
2023-05-19T19:59:31.124Z,13.98
2023-05-19T20:01:57.952Z,13.97
2023-05-19T20:06:55.905Z,13.97
2023-05-19T20:09:22.567Z,14.03
2023-05-19T20:11:49.248Z,13.94
2023-05-19T20:16:50.392Z,14.01
2023-05-19T20:19:17.355Z,13.93
2023-05-19T20:21:44.840Z,13.94
2023-05-19T20:24:11.720Z,14.03
2023-05-19T20:26:38.362Z,13.98
2023-05-19T20:29:05.094Z,13.92
2023-05-19T20:31:31.783Z,14.00
2023-05-19T20:33:59.483Z,13.99
2023-05-19T20:36:28.180Z,13.88
2023-05-19T20:38:54.904Z,14.09
2023-05-19T20:41:22.743Z,14.10
2023-05-19T20:43:49.535Z,14.05
2023-05-19T20:46:16.511Z,14.04
2023-05-19T20:48:43.194Z,14.11
2023-05-19T20:51:09.931Z,13.90
2023-05-19T20:53:36.834Z,13.90
2023-05-19T20:56:05.475Z,13.98
2023-05-19T20:58:32.289Z,14.04
2023-05-19T21:00:59.129Z,14.08
2023-05-19T21:03:27.220Z,14.08
2023-05-19T21:05:54.900Z,14.12
2023-05-19T21:08:21.662Z,14.09
2023-05-19T21:10:48.789Z,14.06
2023-05-19T21:13:15.578Z,14.12
2023-05-19T21:15:42.282Z,14.06
2023-05-19T21:18:09.188Z,14.12
2023-05-19T21:20:36.136Z,14.06
2023-05-19T21:23:03.021Z,13.95
2023-05-19T21:28:01.318Z,13.80
2023-05-19T21:30:28.107Z,13.74
2023-05-19T21:32:54.990Z,13.77
2023-05-19T21:35:21.754Z,13.85
2023-05-19T21:37:48.479Z,13.78
2023-05-19T21:40:15.103Z,13.69
2023-05-19T21:42:41.809Z,13.90
2023-05-19T21:45:08.910Z,13.55
2023-05-19T21:47:36.046Z,13.38
2023-05-19T21:50:02.812Z,13.49
2023-05-19T21:52:29.581Z,13.54
2023-05-19T21:54:56.430Z,13.58
2023-05-19T21:59:56.938Z,12.89
2023-05-19T22:02:23.641Z,12.78
2023-05-19T22:04:50.372Z,12.95
2023-05-19T22:07:17.061Z,12.89
2023-05-19T22:09:43.780Z,12.96
2023-05-19T22:12:10.612Z,12.89
2023-05-19T22:17:14.246Z,12.48
2023-05-19T22:19:40.922Z,12.60
2023-05-19T22:22:13.745Z,12.59
2023-05-19T22:24:41.253Z,12.43
2023-05-19T22:27:08.607Z,12.41
2023-05-19T22:29:38.963Z,12.54
2023-05-19T22:32:07.865Z,12.36
2023-05-19T22:34:34.553Z,12.35
2023-05-19T22:37:02.087Z,12.38
2023-05-19T22:39:28.796Z,12.23
2023-05-19T22:41:55.685Z,12.06
2023-05-19T22:44:22.352Z,12.18
2023-05-19T22:46:49.079Z,12.21
2023-05-19T22:49:15.784Z,12.08
2023-05-19T22:51:42.536Z,12.02
2023-05-19T22:54:09.809Z,12.10
2023-05-19T22:56:36.587Z,11.89
2023-05-19T22:59:03.332Z,12.00
2023-05-19T23:01:30.054Z,11.91
2023-05-19T23:03:56.948Z,11.94
2023-05-19T23:06:23.793Z,11.89
2023-05-19T23:09:00.638Z,12.02
2023-05-19T23:11:27.419Z,12.10
2023-05-19T23:22:25.448Z,11.89
2023-05-19T23:24:52.136Z,11.82
2023-05-19T23:27:18.804Z,11.81
2023-05-19T23:29:49.313Z,11.87
2023-05-19T23:32:16.263Z,11.79
2023-05-19T23:34:43.019Z,11.86
2023-05-19T23:37:09.966Z,12.03
2023-05-19T23:39:38.474Z,12.02
2023-05-19T23:42:06.008Z,12.09
2023-05-19T23:44:32.821Z,12.08
2023-05-19T23:46:59.866Z,12.13
2023-05-19T23:49:26.677Z,12.15
2023-05-19T23:51:53.578Z,12.12
2023-05-19T23:54:20.506Z,12.16
2023-05-19T23:56:47.202Z,12.27
2023-05-19T23:59:13.884Z,12.22
